sensor_id;sensor_type;location;lat;lon;timestamp;temperature;humidity
64715;DHT22;51144;53.002;6.506;2022-07-25T00:02:18;23.60;99.90
64715;DHT22;51144;53.002;6.506;2022-07-25T00:04:44;23.60;99.90
64715;DHT22;51144;53.002;6.506;2022-07-25T00:07:09;23.50;99.90
64715;DHT22;51144;53.002;6.506;2022-07-25T00:09:35;23.50;99.90
64715;DHT22;51144;53.002;6.506;2022-07-25T00:12:01;23.50;99.90
64715;DHT22;51144;53.002;6.506;2022-07-25T00:14:26;23.50;99.90
64715;DHT22;51144;53.002;6.506;2022-07-25T00:16:52;23.50;99.90
64715;DHT22;51144;53.002;6.506;2022-07-25T00:19:17;23.50;99.90
64715;DHT22;51144;53.002;6.506;2022-07-25T00:21:43;23.50;99.90
64715;DHT22;51144;53.002;6.506;2022-07-25T00:24:09;23.50;99.90
64715;DHT22;51144;53.002;6.506;2022-07-25T00:26:34;23.50;99.90
64715;DHT22;51144;53.002;6.506;2022-07-25T00:29:00;23.40;99.90
64715;DHT22;51144;53.002;6.506;2022-07-25T00:31:26;23.40;99.90
64715;DHT22;51144;53.002;6.506;2022-07-25T00:34:01;23.40;99.90
64715;DHT22;51144;53.002;6.506;2022-07-25T00:36:26;23.40;99.90
64715;DHT22;51144;53.002;6.506;2022-07-25T00:38:52;23.40;99.90
64715;DHT22;51144;53.002;6.506;2022-07-25T00:41:18;23.30;99.90
64715;DHT22;51144;53.002;6.506;2022-07-25T00:43:44;23.30;99.90
64715;DHT22;51144;53.002;6.506;2022-07-25T00:46:17;23.30;99.90
64715;DHT22;51144;53.002;6.506;2022-07-25T00:48:43;23.30;99.90
64715;DHT22;51144;53.002;6.506;2022-07-25T00:51:09;23.20;99.90
64715;DHT22;51144;53.002;6.506;2022-07-25T00:53:36;23.20;99.90
64715;DHT22;51144;53.002;6.506;2022-07-25T00:56:03;23.20;99.90
64715;DHT22;51144;53.002;6.506;2022-07-25T00:58:29;23.10;99.90
64715;DHT22;51144;53.002;6.506;2022-07-25T01:00:55;23.10;99.90
64715;DHT22;51144;53.002;6.506;2022-07-25T01:03:20;23.00;99.90
64715;DHT22;51144;53.002;6.506;2022-07-25T01:05:46;23.00;99.90
64715;DHT22;51144;53.002;6.506;2022-07-25T01:08:12;23.00;99.90
64715;DHT22;51144;53.002;6.506;2022-07-25T01:10:38;22.90;99.90
64715;DHT22;51144;53.002;6.506;2022-07-25T01:13:04;22.90;99.90
64715;DHT22;51144;53.002;6.506;2022-07-25T01:15:30;22.90;99.90
64715;DHT22;51144;53.002;6.506;2022-07-25T01:17:56;22.80;99.90
64715;DHT22;51144;53.002;6.506;2022-07-25T01:20:23;22.80;99.90
64715;DHT22;51144;53.002;6.506;2022-07-25T01:22:50;22.70;99.90
64715;DHT22;51144;53.002;6.506;2022-07-25T01:25:16;22.70;99.90
64715;DHT22;51144;53.002;6.506;2022-07-25T01:27:42;22.70;99.90
64715;DHT22;51144;53.002;6.506;2022-07-25T01:30:10;22.70;99.90
64715;DHT22;51144;53.002;6.506;2022-07-25T01:32:36;22.70;99.90
64715;DHT22;51144;53.002;6.506;2022-07-25T01:35:06;22.60;99.90
64715;DHT22;51144;53.002;6.506;2022-07-25T01:37:32;22.60;99.90
64715;DHT22;51144;53.002;6.506;2022-07-25T01:39:58;22.50;99.90
64715;DHT22;51144;53.002;6.506;2022-07-25T01:42:24;22.50;99.90
64715;DHT22;51144;53.002;6.506;2022-07-25T01:44:49;22.50;99.90
64715;DHT22;51144;53.002;6.506;2022-07-25T01:47:15;22.40;99.90
64715;DHT22;51144;53.002;6.506;2022-07-25T01:49:44;22.40;99.90
64715;DHT22;51144;53.002;6.506;2022-07-25T01:52:11;22.40;99.90
64715;DHT22;51144;53.002;6.506;2022-07-25T01:54:40;22.40;99.90
64715;DHT22;51144;53.002;6.506;2022-07-25T01:57:06;22.40;99.90
64715;DHT22;51144;53.002;6.506;2022-07-25T01:59:35;22.40;99.90
64715;DHT22;51144;53.002;6.506;2022-07-25T02:02:00;22.40;99.90
64715;DHT22;51144;53.002;6.506;2022-07-25T02:04:26;22.40;99.90
64715;DHT22;51144;53.002;6.506;2022-07-25T02:06:52;22.30;99.90
64715;DHT22;51144;53.002;6.506;2022-07-25T02:09:17;22.30;99.90
64715;DHT22;51144;53.002;6.506;2022-07-25T02:11:43;22.30;99.90
64715;DHT22;51144;53.002;6.506;2022-07-25T02:14:08;22.30;99.90
64715;DHT22;51144;53.002;6.506;2022-07-25T02:16:34;22.30;99.90
64715;DHT22;51144;53.002;6.506;2022-07-25T02:19:00;22.20;99.90
64715;DHT22;51144;53.002;6.506;2022-07-25T02:21:25;22.20;99.90
64715;DHT22;51144;53.002;6.506;2022-07-25T02:23:51;22.20;99.90
64715;DHT22;51144;53.002;6.506;2022-07-25T02:26:17;22.20;99.90
64715;DHT22;51144;53.002;6.506;2022-07-25T02:28:42;22.10;99.90
64715;DHT22;51144;53.002;6.506;2022-07-25T02:31:08;22.10;99.90
64715;DHT22;51144;53.002;6.506;2022-07-25T02:33:34;22.10;99.90
64715;DHT22;51144;53.002;6.506;2022-07-25T02:36:00;22.10;99.90
64715;DHT22;51144;53.002;6.506;2022-07-25T02:38:26;22.10;99.90
64715;DHT22;51144;53.002;6.506;2022-07-25T02:40:52;22.10;99.90
64715;DHT22;51144;53.002;6.506;2022-07-25T02:43:18;22.00;99.90
64715;DHT22;51144;53.002;6.506;2022-07-25T02:45:45;22.00;99.90
64715;DHT22;51144;53.002;6.506;2022-07-25T02:48:11;22.00;99.90
64715;DHT22;51144;53.002;6.506;2022-07-25T02:50:37;22.00;99.90
64715;DHT22;51144;53.002;6.506;2022-07-25T02:53:03;21.90;99.90
64715;DHT22;51144;53.002;6.506;2022-07-25T02:55:29;21.80;99.90
64715;DHT22;51144;53.002;6.506;2022-07-25T02:57:55;21.70;99.90
64715;DHT22;51144;53.002;6.506;2022-07-25T03:00:20;21.50;99.90
64715;DHT22;51144;53.002;6.506;2022-07-25T03:02:46;21.40;99.90
64715;DHT22;51144;53.002;6.506;2022-07-25T03:05:14;21.30;99.90
64715;DHT22;51144;53.002;6.506;2022-07-25T03:07:40;21.30;99.90
64715;DHT22;51144;53.002;6.506;2022-07-25T03:10:07;21.20;99.90
64715;DHT22;51144;53.002;6.506;2022-07-25T03:12:33;21.20;99.90
64715;DHT22;51144;53.002;6.506;2022-07-25T03:15:00;21.20;99.90
64715;DHT22;51144;53.002;6.506;2022-07-25T03:17:27;21.10;99.90
64715;DHT22;51144;53.002;6.506;2022-07-25T03:19:53;21.10;99.90
64715;DHT22;51144;53.002;6.506;2022-07-25T03:22:19;21.10;99.90
64715;DHT22;51144;53.002;6.506;2022-07-25T03:24:45;21.10;99.90
64715;DHT22;51144;53.002;6.506;2022-07-25T03:27:11;21.00;99.90
64715;DHT22;51144;53.002;6.506;2022-07-25T03:29:36;21.00;99.90
64715;DHT22;51144;53.002;6.506;2022-07-25T03:32:02;21.00;99.90
64715;DHT22;51144;53.002;6.506;2022-07-25T03:34:28;21.00;99.90
64715;DHT22;51144;53.002;6.506;2022-07-25T03:36:54;21.00;99.90
64715;DHT22;51144;53.002;6.506;2022-07-25T03:39:20;21.00;99.90
64715;DHT22;51144;53.002;6.506;2022-07-25T03:41:46;21.00;99.90
64715;DHT22;51144;53.002;6.506;2022-07-25T03:44:12;21.00;99.90
64715;DHT22;51144;53.002;6.506;2022-07-25T03:46:38;21.00;99.90
64715;DHT22;51144;53.002;6.506;2022-07-25T03:49:03;21.00;99.90
64715;DHT22;51144;53.002;6.506;2022-07-25T03:51:29;21.00;99.90
64715;DHT22;51144;53.002;6.506;2022-07-25T03:53:55;21.00;99.90
64715;DHT22;51144;53.002;6.506;2022-07-25T03:56:43;21.00;99.90
64715;DHT22;51144;53.002;6.506;2022-07-25T03:59:11;21.00;99.90
64715;DHT22;51144;53.002;6.506;2022-07-25T04:01:37;21.00;99.90
64715;DHT22;51144;53.002;6.506;2022-07-25T04:04:03;21.00;99.90
64715;DHT22;51144;53.002;6.506;2022-07-25T04:06:29;21.00;99.90
64715;DHT22;51144;53.002;6.506;2022-07-25T04:08:55;21.00;99.90
64715;DHT22;51144;53.002;6.506;2022-07-25T04:11:21;21.00;99.90
64715;DHT22;51144;53.002;6.506;2022-07-25T04:13:47;21.10;99.90
64715;DHT22;51144;53.002;6.506;2022-07-25T04:16:13;21.10;99.90
64715;DHT22;51144;53.002;6.506;2022-07-25T04:18:39;21.10;99.90
64715;DHT22;51144;53.002;6.506;2022-07-25T04:21:06;21.20;99.90
64715;DHT22;51144;53.002;6.506;2022-07-25T04:23:32;21.20;99.90
64715;DHT22;51144;53.002;6.506;2022-07-25T04:25:57;21.30;99.90
64715;DHT22;51144;53.002;6.506;2022-07-25T04:28:23;21.30;99.90
64715;DHT22;51144;53.002;6.506;2022-07-25T04:30:49;21.40;99.90
64715;DHT22;51144;53.002;6.506;2022-07-25T04:33:15;21.60;99.90
64715;DHT22;51144;53.002;6.506;2022-07-25T04:35:41;22.10;99.90
64715;DHT22;51144;53.002;6.506;2022-07-25T04:38:06;22.40;99.90
64715;DHT22;51144;53.002;6.506;2022-07-25T04:40:32;22.50;99.90
64715;DHT22;51144;53.002;6.506;2022-07-25T04:42:58;22.50;99.90
64715;DHT22;51144;53.002;6.506;2022-07-25T04:45:23;22.90;99.90
64715;DHT22;51144;53.002;6.506;2022-07-25T04:47:49;23.90;99.90
64715;DHT22;51144;53.002;6.506;2022-07-25T04:50:15;24.50;99.90
64715;DHT22;51144;53.002;6.506;2022-07-25T04:52:41;24.40;99.90
64715;DHT22;51144;53.002;6.506;2022-07-25T04:55:07;24.30;99.90
64715;DHT22;51144;53.002;6.506;2022-07-25T04:57:33;24.10;99.90
64715;DHT22;51144;53.002;6.506;2022-07-25T04:59:59;23.90;99.90
64715;DHT22;51144;53.002;6.506;2022-07-25T05:02:25;23.70;99.90
64715;DHT22;51144;53.002;6.506;2022-07-25T05:04:51;23.50;99.90
64715;DHT22;51144;53.002;6.506;2022-07-25T05:07:17;23.30;99.90
64715;DHT22;51144;53.002;6.506;2022-07-25T05:09:42;23.20;99.90
64715;DHT22;51144;53.002;6.506;2022-07-25T05:12:08;23.10;99.90
64715;DHT22;51144;53.002;6.506;2022-07-25T05:14:34;23.20;99.90
64715;DHT22;51144;53.002;6.506;2022-07-25T05:17:00;23.30;99.90
64715;DHT22;51144;53.002;6.506;2022-07-25T05:19:25;23.30;99.90
64715;DHT22;51144;53.002;6.506;2022-07-25T05:21:51;23.40;99.90
64715;DHT22;51144;53.002;6.506;2022-07-25T05:24:17;23.40;99.90
64715;DHT22;51144;53.002;6.506;2022-07-25T05:26:43;23.30;99.90
64715;DHT22;51144;53.002;6.506;2022-07-25T05:29:08;23.30;99.90
64715;DHT22;51144;53.002;6.506;2022-07-25T05:31:35;23.20;99.90
64715;DHT22;51144;53.002;6.506;2022-07-25T05:34:01;23.30;99.90
64715;DHT22;51144;53.002;6.506;2022-07-25T05:36:26;23.20;99.90
64715;DHT22;51144;53.002;6.506;2022-07-25T05:38:52;23.10;99.90
64715;DHT22;51144;53.002;6.506;2022-07-25T05:41:18;23.10;99.90
64715;DHT22;51144;53.002;6.506;2022-07-25T05:43:44;23.00;99.90
64715;DHT22;51144;53.002;6.506;2022-07-25T05:46:12;23.00;99.90
64715;DHT22;51144;53.002;6.506;2022-07-25T05:48:41;23.00;99.90
64715;DHT22;51144;53.002;6.506;2022-07-25T05:51:07;23.10;99.90
64715;DHT22;51144;53.002;6.506;2022-07-25T05:53:33;23.30;99.90
64715;DHT22;51144;53.002;6.506;2022-07-25T05:55:59;23.40;99.90
64715;DHT22;51144;53.002;6.506;2022-07-25T05:58:24;23.50;99.90
64715;DHT22;51144;53.002;6.506;2022-07-25T06:00:50;23.60;99.90
64715;DHT22;51144;53.002;6.506;2022-07-25T06:03:16;23.70;99.90
64715;DHT22;51144;53.002;6.506;2022-07-25T06:05:46;23.90;99.90
64715;DHT22;51144;53.002;6.506;2022-07-25T06:08:15;24.30;99.90
64715;DHT22;51144;53.002;6.506;2022-07-25T06:10:41;24.70;99.90
64715;DHT22;51144;53.002;6.506;2022-07-25T06:13:07;24.90;99.90
64715;DHT22;51144;53.002;6.506;2022-07-25T06:15:33;25.10;99.90
64715;DHT22;51144;53.002;6.506;2022-07-25T06:17:59;25.20;99.90
64715;DHT22;51144;53.002;6.506;2022-07-25T06:20:24;25.10;99.90
64715;DHT22;51144;53.002;6.506;2022-07-25T06:22:50;25.00;99.90
64715;DHT22;51144;53.002;6.506;2022-07-25T06:25:16;24.90;99.90
64715;DHT22;51144;53.002;6.506;2022-07-25T06:27:41;24.80;99.90
64715;DHT22;51144;53.002;6.506;2022-07-25T06:30:08;24.70;99.90
64715;DHT22;51144;53.002;6.506;2022-07-25T06:32:34;24.50;99.90
64715;DHT22;51144;53.002;6.506;2022-07-25T06:35:00;24.50;99.90
64715;DHT22;51144;53.002;6.506;2022-07-25T06:37:26;24.60;99.90
64715;DHT22;51144;53.002;6.506;2022-07-25T06:39:52;24.80;99.90
64715;DHT22;51144;53.002;6.506;2022-07-25T06:42:17;25.00;99.90
64715;DHT22;51144;53.002;6.506;2022-07-25T06:44:43;25.20;99.90
64715;DHT22;51144;53.002;6.506;2022-07-25T06:47:09;25.40;99.90
64715;DHT22;51144;53.002;6.506;2022-07-25T06:49:37;25.60;99.90
64715;DHT22;51144;53.002;6.506;2022-07-25T06:52:04;25.80;99.90
64715;DHT22;51144;53.002;6.506;2022-07-25T06:54:29;25.80;99.90
64715;DHT22;51144;53.002;6.506;2022-07-25T06:56:55;26.00;99.90
64715;DHT22;51144;53.002;6.506;2022-07-25T06:59:20;26.10;99.90
64715;DHT22;51144;53.002;6.506;2022-07-25T07:01:46;26.50;99.90
64715;DHT22;51144;53.002;6.506;2022-07-25T07:04:12;26.70;99.90
64715;DHT22;51144;53.002;6.506;2022-07-25T07:06:37;26.90;99.90
64715;DHT22;51144;53.002;6.506;2022-07-25T07:09:04;26.90;99.90
64715;DHT22;51144;53.002;6.506;2022-07-25T07:11:30;26.70;99.90
64715;DHT22;51144;53.002;6.506;2022-07-25T07:13:55;26.40;99.90
64715;DHT22;51144;53.002;6.506;2022-07-25T07:16:21;26.10;99.90
64715;DHT22;51144;53.002;6.506;2022-07-25T07:18:46;26.10;99.90
64715;DHT22;51144;53.002;6.506;2022-07-25T07:21:12;26.00;99.90
64715;DHT22;51144;53.002;6.506;2022-07-25T07:23:38;26.00;99.90
64715;DHT22;51144;53.002;6.506;2022-07-25T07:26:03;25.90;99.90
64715;DHT22;51144;53.002;6.506;2022-07-25T07:28:29;25.90;99.90
64715;DHT22;51144;53.002;6.506;2022-07-25T07:30:54;25.80;99.90
64715;DHT22;51144;53.002;6.506;2022-07-25T07:33:20;25.70;99.90
64715;DHT22;51144;53.002;6.506;2022-07-25T07:35:46;25.70;99.90
64715;DHT22;51144;53.002;6.506;2022-07-25T07:38:11;25.70;99.90
64715;DHT22;51144;53.002;6.506;2022-07-25T07:40:37;25.70;99.90
64715;DHT22;51144;53.002;6.506;2022-07-25T07:43:02;25.80;99.90
64715;DHT22;51144;53.002;6.506;2022-07-25T07:45:29;25.80;99.90
64715;DHT22;51144;53.002;6.506;2022-07-25T07:47:55;25.80;99.90
64715;DHT22;51144;53.002;6.506;2022-07-25T07:50:25;26.00;99.90
64715;DHT22;51144;53.002;6.506;2022-07-25T07:52:52;26.10;99.90
64715;DHT22;51144;53.002;6.506;2022-07-25T07:55:18;26.20;99.90
64715;DHT22;51144;53.002;6.506;2022-07-25T07:58:02;26.30;99.90
64715;DHT22;51144;53.002;6.506;2022-07-25T08:00:29;26.20;99.90
64715;DHT22;51144;53.002;6.506;2022-07-25T08:02:56;26.40;99.90
64715;DHT22;51144;53.002;6.506;2022-07-25T08:07:52;26.30;99.90
64715;DHT22;51144;53.002;6.506;2022-07-25T08:10:23;26.10;99.90
64715;DHT22;51144;53.002;6.506;2022-07-25T08:12:49;26.00;99.90
64715;DHT22;51144;53.002;6.506;2022-07-25T08:15:16;25.70;99.90
64715;DHT22;51144;53.002;6.506;2022-07-25T08:17:43;25.60;99.90
64715;DHT22;51144;53.002;6.506;2022-07-25T08:20:09;25.60;99.90
64715;DHT22;51144;53.002;6.506;2022-07-25T08:22:40;25.60;99.90
64715;DHT22;51144;53.002;6.506;2022-07-25T08:25:07;25.60;99.90
64715;DHT22;51144;53.002;6.506;2022-07-25T08:27:33;25.50;99.90
64715;DHT22;51144;53.002;6.506;2022-07-25T08:29:58;25.60;99.90
64715;DHT22;51144;53.002;6.506;2022-07-25T08:32:26;25.70;99.90
64715;DHT22;51144;53.002;6.506;2022-07-25T08:34:56;25.80;99.90
64715;DHT22;51144;53.002;6.506;2022-07-25T08:37:21;25.70;99.90
64715;DHT22;51144;53.002;6.506;2022-07-25T08:39:48;25.80;99.90
64715;DHT22;51144;53.002;6.506;2022-07-25T08:42:14;25.70;99.90
64715;DHT22;51144;53.002;6.506;2022-07-25T08:44:43;25.60;99.90
64715;DHT22;51144;53.002;6.506;2022-07-25T08:47:12;25.50;99.90
64715;DHT22;51144;53.002;6.506;2022-07-25T08:49:40;25.40;99.90
64715;DHT22;51144;53.002;6.506;2022-07-25T08:52:07;25.30;99.90
64715;DHT22;51144;53.002;6.506;2022-07-25T08:54:34;25.30;99.90
64715;DHT22;51144;53.002;6.506;2022-07-25T08:56:59;25.30;99.90
64715;DHT22;51144;53.002;6.506;2022-07-25T08:59:25;25.30;99.90
64715;DHT22;51144;53.002;6.506;2022-07-25T09:01:50;25.20;99.90
64715;DHT22;51144;53.002;6.506;2022-07-25T09:04:16;25.20;99.90
64715;DHT22;51144;53.002;6.506;2022-07-25T09:06:49;25.10;99.90
64715;DHT22;51144;53.002;6.506;2022-07-25T09:09:15;25.10;99.90
64715;DHT22;51144;53.002;6.506;2022-07-25T09:11:41;25.10;99.90
64715;DHT22;51144;53.002;6.506;2022-07-25T09:14:10;25.00;99.90
64715;DHT22;51144;53.002;6.506;2022-07-25T09:16:38;25.10;99.90
64715;DHT22;51144;53.002;6.506;2022-07-25T09:19:09;25.10;99.90
64715;DHT22;51144;53.002;6.506;2022-07-25T09:21:36;25.00;99.90
64715;DHT22;51144;53.002;6.506;2022-07-25T09:24:10;25.00;99.90
64715;DHT22;51144;53.002;6.506;2022-07-25T09:26:53;25.10;99.90
64715;DHT22;51144;53.002;6.506;2022-07-25T09:31:52;25.10;99.90
64715;DHT22;51144;53.002;6.506;2022-07-25T09:34:31;25.20;99.90
64715;DHT22;51144;53.002;6.506;2022-07-25T09:37:03;25.30;99.90
64715;DHT22;51144;53.002;6.506;2022-07-25T09:39:52;25.50;99.90
64715;DHT22;51144;53.002;6.506;2022-07-25T09:42:30;25.80;99.90
64715;DHT22;51144;53.002;6.506;2022-07-25T09:45:03;26.00;99.90
64715;DHT22;51144;53.002;6.506;2022-07-25T09:47:29;26.40;99.90
64715;DHT22;51144;53.002;6.506;2022-07-25T09:49:56;26.50;99.70
64715;DHT22;51144;53.002;6.506;2022-07-25T09:52:22;26.60;99.30
64715;DHT22;51144;53.002;6.506;2022-07-25T09:54:48;26.60;99.80
64715;DHT22;51144;53.002;6.506;2022-07-25T09:57:13;26.40;99.50
64715;DHT22;51144;53.002;6.506;2022-07-25T09:59:39;26.30;99.50
64715;DHT22;51144;53.002;6.506;2022-07-25T10:02:32;26.40;99.80
64715;DHT22;51144;53.002;6.506;2022-07-25T10:05:18;26.40;99.90
64715;DHT22;51144;53.002;6.506;2022-07-25T10:07:47;26.30;99.90
64715;DHT22;51144;53.002;6.506;2022-07-25T10:10:28;26.40;99.90
64715;DHT22;51144;53.002;6.506;2022-07-25T10:13:03;26.60;99.90
64715;DHT22;51144;53.002;6.506;2022-07-25T10:15:51;26.70;99.90
64715;DHT22;51144;53.002;6.506;2022-07-25T10:18:22;27.10;99.90
64715;DHT22;51144;53.002;6.506;2022-07-25T10:21:11;27.20;99.90
64715;DHT22;51144;53.002;6.506;2022-07-25T10:23:36;27.00;99.90
64715;DHT22;51144;53.002;6.506;2022-07-25T10:26:10;26.60;99.90
64715;DHT22;51144;53.002;6.506;2022-07-25T10:28:49;26.40;99.90
64715;DHT22;51144;53.002;6.506;2022-07-25T10:34:06;26.30;99.90
64715;DHT22;51144;53.002;6.506;2022-07-25T10:36:47;26.40;99.90
64715;DHT22;51144;53.002;6.506;2022-07-25T10:39:15;26.40;99.90
64715;DHT22;51144;53.002;6.506;2022-07-25T10:41:48;26.40;99.90
64715;DHT22;51144;53.002;6.506;2022-07-25T10:44:15;26.30;99.90
64715;DHT22;51144;53.002;6.506;2022-07-25T10:46:42;26.20;99.90
64715;DHT22;51144;53.002;6.506;2022-07-25T10:49:19;26.00;99.90
64715;DHT22;51144;53.002;6.506;2022-07-25T10:51:55;25.80;99.90
64715;DHT22;51144;53.002;6.506;2022-07-25T10:54:21;25.40;99.90
64715;DHT22;51144;53.002;6.506;2022-07-25T10:56:58;24.90;99.90
64715;DHT22;51144;53.002;6.506;2022-07-25T10:59:35;24.60;99.90
64715;DHT22;51144;53.002;6.506;2022-07-25T11:02:06;24.40;99.90
64715;DHT22;51144;53.002;6.506;2022-07-25T11:04:36;24.40;99.90
64715;DHT22;51144;53.002;6.506;2022-07-25T11:07:16;24.50;99.90
64715;DHT22;51144;53.002;6.506;2022-07-25T11:09:58;24.60;99.90
64715;DHT22;51144;53.002;6.506;2022-07-25T11:12:24;24.90;99.90
64715;DHT22;51144;53.002;6.506;2022-07-25T11:14:50;25.10;99.90
64715;DHT22;51144;53.002;6.506;2022-07-25T11:17:18;25.20;99.90
64715;DHT22;51144;53.002;6.506;2022-07-25T11:22:20;25.50;99.90
64715;DHT22;51144;53.002;6.506;2022-07-25T11:24:46;25.60;99.90
64715;DHT22;51144;53.002;6.506;2022-07-25T11:27:28;25.60;99.90
64715;DHT22;51144;53.002;6.506;2022-07-25T11:32:43;25.60;99.90
64715;DHT22;51144;53.002;6.506;2022-07-25T11:35:09;25.30;99.90
64715;DHT22;51144;53.002;6.506;2022-07-25T11:37:38;25.10;99.90
64715;DHT22;51144;53.002;6.506;2022-07-25T11:40:05;25.30;99.90
64715;DHT22;51144;53.002;6.506;2022-07-25T11:42:39;25.50;99.90
64715;DHT22;51144;53.002;6.506;2022-07-25T11:45:28;25.70;99.90
64715;DHT22;51144;53.002;6.506;2022-07-25T11:48:11;25.90;99.90
64715;DHT22;51144;53.002;6.506;2022-07-25T11:50:42;26.00;99.90
64715;DHT22;51144;53.002;6.506;2022-07-25T11:53:10;26.00;99.90
64715;DHT22;51144;53.002;6.506;2022-07-25T11:55:39;25.80;99.90
64715;DHT22;51144;53.002;6.506;2022-07-25T11:58:05;25.60;99.90
64715;DHT22;51144;53.002;6.506;2022-07-25T12:00:39;25.20;99.90
64715;DHT22;51144;53.002;6.506;2022-07-25T12:03:10;25.00;99.90
64715;DHT22;51144;53.002;6.506;2022-07-25T12:05:36;24.90;99.90
64715;DHT22;51144;53.002;6.506;2022-07-25T12:10:41;24.70;99.90
64715;DHT22;51144;53.002;6.506;2022-07-25T12:13:08;24.90;99.90
64715;DHT22;51144;53.002;6.506;2022-07-25T12:15:39;25.20;99.90
64715;DHT22;51144;53.002;6.506;2022-07-25T12:18:06;25.50;99.90
64715;DHT22;51144;53.002;6.506;2022-07-25T12:20:39;25.60;99.90
64715;DHT22;51144;53.002;6.506;2022-07-25T12:23:07;25.90;99.90
64715;DHT22;51144;53.002;6.506;2022-07-25T12:25:39;25.90;99.90
64715;DHT22;51144;53.002;6.506;2022-07-25T12:28:05;25.60;99.90
64715;DHT22;51144;53.002;6.506;2022-07-25T12:30:32;25.50;99.90
64715;DHT22;51144;53.002;6.506;2022-07-25T12:32:59;25.40;99.90
64715;DHT22;51144;53.002;6.506;2022-07-25T12:35:25;25.50;99.90
64715;DHT22;51144;53.002;6.506;2022-07-25T12:37:52;25.70;99.90
64715;DHT22;51144;53.002;6.506;2022-07-25T12:40:19;25.60;99.90
64715;DHT22;51144;53.002;6.506;2022-07-25T12:42:45;25.50;99.90
64715;DHT22;51144;53.002;6.506;2022-07-25T12:45:12;25.50;99.90
64715;DHT22;51144;53.002;6.506;2022-07-25T12:47:41;25.50;99.90
64715;DHT22;51144;53.002;6.506;2022-07-25T12:50:06;25.60;99.90
64715;DHT22;51144;53.002;6.506;2022-07-25T12:52:32;25.60;99.90
64715;DHT22;51144;53.002;6.506;2022-07-25T12:55:02;25.60;99.90
64715;DHT22;51144;53.002;6.506;2022-07-25T12:57:27;25.70;99.90
64715;DHT22;51144;53.002;6.506;2022-07-25T12:59:53;25.40;99.90
64715;DHT22;51144;53.002;6.506;2022-07-25T13:02:18;25.40;99.90
64715;DHT22;51144;53.002;6.506;2022-07-25T13:04:44;25.40;99.90
64715;DHT22;51144;53.002;6.506;2022-07-25T13:07:11;25.30;99.90
64715;DHT22;51144;53.002;6.506;2022-07-25T13:09:37;25.20;99.90
64715;DHT22;51144;53.002;6.506;2022-07-25T13:12:03;25.10;99.90
64715;DHT22;51144;53.002;6.506;2022-07-25T13:14:28;24.90;99.90
64715;DHT22;51144;53.002;6.506;2022-07-25T13:16:55;24.90;99.90
64715;DHT22;51144;53.002;6.506;2022-07-25T13:19:21;24.60;99.90
64715;DHT22;51144;53.002;6.506;2022-07-25T13:21:46;24.50;99.90
64715;DHT22;51144;53.002;6.506;2022-07-25T13:24:12;24.40;99.90
64715;DHT22;51144;53.002;6.506;2022-07-25T13:26:38;24.30;99.90
64715;DHT22;51144;53.002;6.506;2022-07-25T13:29:04;24.30;99.90
64715;DHT22;51144;53.002;6.506;2022-07-25T13:31:36;24.10;99.90
64715;DHT22;51144;53.002;6.506;2022-07-25T13:34:02;24.00;99.90
64715;DHT22;51144;53.002;6.506;2022-07-25T13:36:28;23.90;99.90
64715;DHT22;51144;53.002;6.506;2022-07-25T13:38:53;23.90;99.90
64715;DHT22;51144;53.002;6.506;2022-07-25T13:41:19;23.90;99.90
64715;DHT22;51144;53.002;6.506;2022-07-25T13:43:44;23.90;99.90
64715;DHT22;51144;53.002;6.506;2022-07-25T13:46:10;24.00;99.90
64715;DHT22;51144;53.002;6.506;2022-07-25T13:48:36;24.00;99.90
64715;DHT22;51144;53.002;6.506;2022-07-25T13:51:02;24.10;99.90
64715;DHT22;51144;53.002;6.506;2022-07-25T13:53:28;24.30;99.90
64715;DHT22;51144;53.002;6.506;2022-07-25T13:55:55;24.40;99.90
64715;DHT22;51144;53.002;6.506;2022-07-25T13:58:21;24.60;99.90
64715;DHT22;51144;53.002;6.506;2022-07-25T14:00:46;24.80;99.90
64715;DHT22;51144;53.002;6.506;2022-07-25T14:03:12;25.00;99.90
64715;DHT22;51144;53.002;6.506;2022-07-25T14:05:38;25.10;99.90
64715;DHT22;51144;53.002;6.506;2022-07-25T14:08:04;25.00;99.90
64715;DHT22;51144;53.002;6.506;2022-07-25T14:10:30;24.80;99.90
64715;DHT22;51144;53.002;6.506;2022-07-25T14:12:55;24.60;99.90
64715;DHT22;51144;53.002;6.506;2022-07-25T14:15:21;24.40;99.90
64715;DHT22;51144;53.002;6.506;2022-07-25T14:17:47;24.40;99.90
64715;DHT22;51144;53.002;6.506;2022-07-25T14:20:12;24.50;99.90
64715;DHT22;51144;53.002;6.506;2022-07-25T14:22:38;24.60;99.90
64715;DHT22;51144;53.002;6.506;2022-07-25T14:25:06;24.60;99.90
64715;DHT22;51144;53.002;6.506;2022-07-25T14:27:32;24.50;99.90
64715;DHT22;51144;53.002;6.506;2022-07-25T14:29:58;24.50;99.90
64715;DHT22;51144;53.002;6.506;2022-07-25T14:32:24;24.60;99.90
64715;DHT22;51144;53.002;6.506;2022-07-25T14:34:50;24.60;99.90
64715;DHT22;51144;53.002;6.506;2022-07-25T14:37:18;24.70;99.90
64715;DHT22;51144;53.002;6.506;2022-07-25T14:39:44;24.60;99.50
64715;DHT22;51144;53.002;6.506;2022-07-25T14:42:10;24.70;99.90
64715;DHT22;51144;53.002;6.506;2022-07-25T14:44:36;24.90;99.70
64715;DHT22;51144;53.002;6.506;2022-07-25T14:47:02;24.90;99.00
64715;DHT22;51144;53.002;6.506;2022-07-25T14:49:28;24.90;98.80
64715;DHT22;51144;53.002;6.506;2022-07-25T14:51:54;24.70;98.70
64715;DHT22;51144;53.002;6.506;2022-07-25T14:54:20;24.80;99.10
64715;DHT22;51144;53.002;6.506;2022-07-25T14:56:48;24.70;99.10
64715;DHT22;51144;53.002;6.506;2022-07-25T14:59:14;24.70;99.50
64715;DHT22;51144;53.002;6.506;2022-07-25T15:01:39;24.80;99.00
64715;DHT22;51144;53.002;6.506;2022-07-25T15:04:06;24.80;98.70
64715;DHT22;51144;53.002;6.506;2022-07-25T15:06:31;24.70;98.60
64715;DHT22;51144;53.002;6.506;2022-07-25T15:08:57;24.60;98.90
64715;DHT22;51144;53.002;6.506;2022-07-25T15:11:23;24.60;99.20
64715;DHT22;51144;53.002;6.506;2022-07-25T15:13:48;24.50;99.20
64715;DHT22;51144;53.002;6.506;2022-07-25T15:16:15;24.40;99.30
64715;DHT22;51144;53.002;6.506;2022-07-25T15:18:41;24.30;99.40
64715;DHT22;51144;53.002;6.506;2022-07-25T15:21:11;24.30;99.30
64715;DHT22;51144;53.002;6.506;2022-07-25T15:23:37;24.40;99.50
64715;DHT22;51144;53.002;6.506;2022-07-25T15:26:03;24.40;99.40
64715;DHT22;51144;53.002;6.506;2022-07-25T15:28:33;24.40;99.60
64715;DHT22;51144;53.002;6.506;2022-07-25T15:30:59;24.30;99.50
64715;DHT22;51144;53.002;6.506;2022-07-25T15:33:27;24.20;99.20
64715;DHT22;51144;53.002;6.506;2022-07-25T15:35:53;24.00;98.90
64715;DHT22;51144;53.002;6.506;2022-07-25T15:38:19;23.80;98.90
64715;DHT22;51144;53.002;6.506;2022-07-25T15:40:45;23.70;99.30
64715;DHT22;51144;53.002;6.506;2022-07-25T15:43:13;23.70;99.50
64715;DHT22;51144;53.002;6.506;2022-07-25T15:45:41;23.70;99.50
64715;DHT22;51144;53.002;6.506;2022-07-25T15:48:08;23.60;99.90